Time;durP1;ratioP1;P1;durP2;ratioP2;P2;SDS_P1;SDS_P2;PMS_P1;PMS_P2;Temp;Humidity;BMP_temperature;BMP_pressure;BME280_temperature;BME280_humidity;BME280_pressure;Samples;Min_cycle;Max_cycle;Signal;HPM_P1;HPM_P2
2023/03/24 00:00:12;;;;;;;7.38;2.70;;;;;;;;;;5089013;28;20058;-75
2023/03/24 00:02:45;;;;;;;10.40;2.80;;;;;;;;;;5096936;28;20044;-76
2023/03/24 00:05:19;;;;;;;9.52;3.20;;;;;;;;;;5095130;28;20051;-75
2023/03/24 00:07:50;;;;;;;8.57;2.92;;;;;;;;;;5076835;28;20055;-75
2023/03/24 00:10:23;;;;;;;6.68;2.67;;;;;;;;;;5087278;28;20537;-75
2023/03/24 00:12:55;;;;;;;7.40;2.58;;;;;;;;;;5086599;28;20445;-75
2023/03/24 00:15:26;;;;;;;10.88;3.75;;;;;;;;;;5086823;28;20056;-77
2023/03/24 00:17:58;;;;;;;13.07;3.92;;;;;;;;;;5087235;28;20047;-75
2023/03/24 00:20:28;;;;;;;8.18;2.90;;;;;;;;;;5086496;28;20051;-76
2023/03/24 00:22:59;;;;;;;7.43;2.88;;;;;;;;;;5086907;28;20052;-75
2023/03/24 00:25:35;;;;;;;7.20;2.58;;;;;;;;;;5090932;28;20052;-75
2023/03/24 00:28:06;;;;;;;7.88;3.03;;;;;;;;;;5072634;28;20051;-75
2023/03/24 00:30:36;;;;;;;12.65;3.53;;;;;;;;;;5090098;28;20052;-76
2023/03/24 00:33:09;;;;;;;8.65;3.50;;;;;;;;;;5071813;28;20052;-75
2023/03/24 00:35:43;;;;;;;9.25;3.47;;;;;;;;;;5072102;28;20048;-76
2023/03/24 00:38:14;;;;;;;10.70;3.47;;;;;;;;;;5090152;28;20044;-75
2023/03/24 00:40:49;;;;;;;9.13;3.28;;;;;;;;;;5090729;28;20056;-75
2023/03/24 00:43:21;;;;;;;8.18;3.60;;;;;;;;;;5090376;28;20052;-76
2023/03/24 00:46:05;;;;;;;10.52;2.88;;;;;;;;;;5071797;28;20051;-76
2023/03/24 00:48:37;;;;;;;11.48;4.10;;;;;;;;;;5071781;28;20052;-75
2023/03/24 00:51:09;;;;;;;12.38;3.20;;;;;;;;;;5071640;28;20067;-74
2023/03/24 00:53:42;;;;;;;7.68;2.75;;;;;;;;;;5090352;28;20474;-74
2023/03/24 00:56:14;;;;;;;11.27;2.90;;;;;;;;;;5090296;28;20048;-75
2023/03/24 00:58:44;;;;;;;11.43;2.97;;;;;;;;;;5072363;28;20063;-74
2023/03/24 01:01:14;;;;;;;5.82;2.70;;;;;;;;;;5090344;28;20048;-74
2023/03/24 01:03:47;;;;;;;7.55;2.47;;;;;;;;;;5090484;28;20044;-74
2023/03/24 01:06:21;;;;;;;14.00;2.92;;;;;;;;;;5071974;28;20130;-74
2023/03/24 01:08:52;;;;;;;10.68;3.22;;;;;;;;;;5090368;28;20414;-75
2023/03/24 01:11:25;;;;;;;16.58;3.90;;;;;;;;;;5090352;28;20055;-74
2023/03/24 01:13:56;;;;;;;10.65;3.00;;;;;;;;;;5072521;28;21157;-74
2023/03/24 01:16:27;;;;;;;8.15;3.22;;;;;;;;;;5088192;28;20565;-74
2023/03/24 01:18:58;;;;;;;12.38;3.17;;;;;;;;;;5089170;28;20040;-75
2023/03/24 01:21:28;;;;;;;9.80;3.28;;;;;;;;;;5070041;28;20418;-74
2023/03/24 01:23:59;;;;;;;14.48;3.42;;;;;;;;;;5088387;28;20426;-75
2023/03/24 01:26:30;;;;;;;17.25;4.65;;;;;;;;;;5089690;28;20044;-75
2023/03/24 01:29:01;;;;;;;13.38;4.82;;;;;;;;;;5089760;28;20044;-75
2023/03/24 01:31:31;;;;;;;15.48;4.63;;;;;;;;;;5089093;28;20533;-76
2023/03/24 01:34:01;;;;;;;14.20;4.20;;;;;;;;;;5088193;28;20059;-75
2023/03/24 01:36:32;;;;;;;15.23;5.05;;;;;;;;;;5089220;28;20525;-75
2023/03/24 01:39:05;;;;;;;10.82;4.10;;;;;;;;;;5089784;28;20507;-75
2023/03/24 01:41:39;;;;;;;15.10;4.35;;;;;;;;;;5089511;28;20072;-75
2023/03/24 01:44:32;;;;;;;12.00;4.85;;;;;;;;;;5070303;28;20056;-75
2023/03/24 01:47:07;;;;;;;14.75;4.03;;;;;;;;;;5089233;28;20077;-75
2023/03/24 01:49:50;;;;;;;14.23;4.20;;;;;;;;;;5088396;28;20044;-75
2023/03/24 01:52:28;;;;;;;15.00;4.43;;;;;;;;;;5088568;28;20138;-75
2023/03/24 01:55:10;;;;;;;12.05;4.05;;;;;;;;;;5070453;28;20044;-74
2023/03/24 01:57:45;;;;;;;14.77;4.80;;;;;;;;;;5071069;28;20040;-74
2023/03/24 02:00:17;;;;;;;14.05;4.82;;;;;;;;;;5070523;28;20048;-75
2023/03/24 02:03:20;;;;;;;12.00;4.80;;;;;;;;;;5073729;28;20059;-75
2023/03/24 02:06:01;;;;;;;11.88;4.30;;;;;;;;;;5069647;28;20514;-75
2023/03/24 02:08:53;;;;;;;17.10;4.55;;;;;;;;;;5070633;28;20052;-76
2023/03/24 02:11:33;;;;;;;16.25;4.75;;;;;;;;;;5070460;28;20404;-75
2023/03/24 02:14:08;;;;;;;10.13;4.57;;;;;;;;;;5070072;28;20048;-75
2023/03/24 02:16:48;;;;;;;12.38;5.05;;;;;;;;;;5069645;28;20059;-74
2023/03/24 02:20:06;;;;;;;14.80;4.65;;;;;;;;;;5070129;28;20044;-75
2023/03/24 02:22:59;;;;;;;11.95;4.38;;;;;;;;;;5070587;28;20518;-74
2023/03/24 02:25:35;;;;;;;14.73;4.22;;;;;;;;;;5069915;28;20523;-75
2023/03/24 02:28:23;;;;;;;17.00;5.40;;;;;;;;;;5088503;28;20122;-75
2023/03/24 02:31:14;;;;;;;11.77;5.20;;;;;;;;;;5070025;28;20052;-74
2023/03/24 02:33:49;;;;;;;11.95;5.00;;;;;;;;;;5053852;28;20134;-75
2023/03/24 02:36:38;;;;;;;10.07;4.45;;;;;;;;;;5070188;28;20067;-75
2023/03/24 02:39:39;;;;;;;15.73;4.25;;;;;;;;;;5070079;28;20044;-74
2023/03/24 02:42:13;;;;;;;13.85;4.40;;;;;;;;;;5069547;28;20060;-75
2023/03/24 02:44:54;;;;;;;11.43;5.00;;;;;;;;;;5069791;28;20056;-74
2023/03/24 02:47:39;;;;;;;9.52;4.20;;;;;;;;;;5069441;28;20055;-75
2023/03/24 02:50:30;;;;;;;13.70;3.83;;;;;;;;;;5088071;28;20052;-74
2023/03/24 02:53:27;;;;;;;14.23;4.32;;;;;;;;;;5069531;28;20055;-79
2023/03/24 02:56:34;;;;;;;9.30;3.97;;;;;;;;;;5085133;28;20071;-75
2023/03/24 02:59:41;;;;;;;11.18;5.05;;;;;;;;;;5069713;28;20078;-75
2023/03/24 03:02:34;;;;;;;11.20;3.90;;;;;;;;;;5065818;28;20064;-74
2023/03/24 03:05:31;;;;;;;11.77;4.55;;;;;;;;;;5068645;28;20399;-74
2023/03/24 03:08:06;;;;;;;15.35;4.55;;;;;;;;;;5068878;28;20059;-74
2023/03/24 03:10:44;;;;;;;10.98;4.78;;;;;;;;;;5069987;28;20063;-74
2023/03/24 03:13:22;;;;;;;14.35;4.35;;;;;;;;;;5069797;28;20048;-74
2023/03/24 03:15:57;;;;;;;19.20;5.18;;;;;;;;;;5069389;28;20086;-75
2023/03/24 03:18:39;;;;;;;11.93;4.97;;;;;;;;;;5068952;28;20048;-75
2023/03/24 03:21:17;;;;;;;10.18;4.65;;;;;;;;;;5069451;28;20047;-75
2023/03/24 03:24:03;;;;;;;11.70;5.22;;;;;;;;;;5087134;28;20075;-75
2023/03/24 03:26:34;;;;;;;12.27;5.22;;;;;;;;;;5069048;28;20056;-75
2023/03/24 03:29:15;;;;;;;15.40;5.68;;;;;;;;;;5069190;28;20511;-75
2023/03/24 03:32:06;;;;;;;12.68;5.03;;;;;;;;;;5069349;28;20047;-75
2023/03/24 03:34:52;;;;;;;10.32;4.95;;;;;;;;;;5068914;28;20052;-74
2023/03/24 03:37:54;;;;;;;12.13;5.32;;;;;;;;;;5087615;28;20044;-75
2023/03/24 03:40:38;;;;;;;9.32;4.45;;;;;;;;;;5087408;28;20074;-74
2023/03/24 03:43:15;;;;;;;11.85;5.03;;;;;;;;;;5068570;28;20434;-75
2023/03/24 03:45:46;;;;;;;14.55;5.28;;;;;;;;;;5087301;28;20415;-75
2023/03/24 03:48:25;;;;;;;11.77;5.30;;;;;;;;;;5053133;28;20093;-75
2023/03/24 03:50:58;;;;;;;17.48;5.07;;;;;;;;;;5068266;28;20059;-75
2023/03/24 03:53:53;;;;;;;13.88;5.97;;;;;;;;;;5068865;28;20059;-75
2023/03/24 03:56:26;;;;;;;11.70;4.80;;;;;;;;;;5068850;28;20510;-74
2023/03/24 03:59:34;;;;;;;14.52;5.13;;;;;;;;;;5068244;28;20411;-75
2023/03/24 04:02:35;;;;;;;12.57;5.20;;;;;;;;;;5068646;28;20529;-74
2023/03/24 04:05:26;;;;;;;21.15;5.88;;;;;;;;;;5068573;28;20052;-75
2023/03/24 04:08:16;;;;;;;12.38;5.30;;;;;;;;;;5068196;28;20059;-74
2023/03/24 04:11:19;;;;;;;21.10;5.47;;;;;;;;;;5090173;28;20040;-74
2023/03/24 04:14:50;;;;;;;9.90;4.45;;;;;;;;;;5086220;28;20079;-75
2023/03/24 04:17:45;;;;;;;21.60;6.05;;;;;;;;;;5088335;28;20048;-74
2023/03/24 04:20:45;;;;;;;11.75;4.97;;;;;;;;;;5067835;28;20048;-75
2023/03/24 04:23:40;;;;;;;10.80;5.78;;;;;;;;;;5068346;28;20049;-75
2023/03/24 04:26:14;;;;;;;;;;;;;;;;;;5087639;28;20051;-74
2023/03/24 04:29:12;;;;;;;20.70;4.90;;;;;;;;;;5067736;28;19928;-75
2023/03/24 04:31:52;;;;;;;16.02;5.10;;;;;;;;;;5086649;28;20047;-75
2023/03/24 04:34:54;;;;;;;11.70;5.40;;;;;;;;;;5067835;28;20040;-75
2023/03/24 04:37:41;;;;;;;14.05;4.93;;;;;;;;;;5067963;28;20056;-75
2023/03/24 04:40:19;;;;;;;14.63;5.10;;;;;;;;;;5052133;28;20418;-75
2023/03/24 04:42:57;;;;;;;17.73;5.10;;;;;;;;;;5086478;28;20043;-75
2023/03/24 04:45:32;;;;;;;12.90;5.55;;;;;;;;;;5068245;28;20079;-75
2023/03/24 04:48:07;;;;;;;10.23;4.90;;;;;;;;;;5090665;28;20048;-75
2023/03/24 04:51:02;;;;;;;11.85;4.60;;;;;;;;;;5067816;28;20490;-75
2023/03/24 04:53:52;;;;;;;17.38;5.10;;;;;;;;;;5067697;28;20075;-75
2023/03/24 04:56:40;;;;;;;11.77;4.63;;;;;;;;;;5068129;28;20415;-75
2023/03/24 04:59:20;;;;;;;14.00;4.95;;;;;;;;;;5067668;28;20044;-74
2023/03/24 05:01:50;;;;;;;13.23;4.80;;;;;;;;;;5067721;28;20048;-75
2023/03/24 05:04:36;;;;;;;13.57;5.15;;;;;;;;;;5068050;28;20060;-75
2023/03/24 05:07:20;;;;;;;16.83;5.03;;;;;;;;;;5068032;28;20056;-75
2023/03/24 05:09:55;;;;;;;16.67;4.95;;;;;;;;;;5069884;28;20062;-74
2023/03/24 05:12:25;;;;;;;12.05;4.82;;;;;;;;;;5089639;28;20577;-74
2023/03/24 05:15:14;;;;;;;11.88;5.43;;;;;;;;;;5079678;28;20502;-74
2023/03/24 05:17:47;;;;;;;12.73;4.57;;;;;;;;;;5070832;28;20423;-75
2023/03/24 05:20:25;;;;;;;13.13;4.47;;;;;;;;;;5071518;28;20052;-74
2023/03/24 05:23:05;;;;;;;13.70;5.15;;;;;;;;;;5070700;28;20048;-75
2023/03/24 05:25:35;;;;;;;11.80;5.03;;;;;;;;;;5071041;28;20102;-74
2023/03/24 05:28:06;;;;;;;12.60;4.60;;;;;;;;;;5071233;28;20048;-75
2023/03/24 05:30:37;;;;;;;13.30;5.15;;;;;;;;;;5071211;28;20051;-74
2023/03/24 05:33:39;;;;;;;10.60;4.85;;;;;;;;;;5055466;28;20067;-75
2023/03/24 05:36:14;;;;;;;12.88;4.47;;;;;;;;;;5071079;28;20048;-74
2023/03/24 05:38:54;;;;;;;12.95;4.70;;;;;;;;;;5067581;28;20069;-75
2023/03/24 05:41:33;;;;;;;11.75;4.70;;;;;;;;;;5067341;28;20055;-75
2023/03/24 05:44:04;;;;;;;13.02;5.55;;;;;;;;;;5068776;28;20059;-74
2023/03/24 05:46:34;;;;;;;8.40;4.93;;;;;;;;;;5067480;28;20052;-74
2023/03/24 05:49:06;;;;;;;6.78;4.70;;;;;;;;;;5067341;28;20503;-75
2023/03/24 05:51:41;;;;;;;17.30;5.90;;;;;;;;;;5067422;28;20088;-75
2023/03/24 05:54:12;;;;;;;10.45;5.65;;;;;;;;;;5066812;28;20045;-74
2023/03/24 05:56:44;;;;;;;13.32;5.05;;;;;;;;;;5067444;28;20056;-74
2023/03/24 05:59:38;;;;;;;16.88;5.75;;;;;;;;;;5067126;28;20060;-75
2023/03/24 06:02:29;;;;;;;13.45;5.50;;;;;;;;;;5069007;28;20060;-75
2023/03/24 06:05:07;;;;;;;11.45;4.60;;;;;;;;;;5066811;28;20059;-75
2023/03/24 06:07:41;;;;;;;13.13;4.85;;;;;;;;;;5069189;28;20051;-75
2023/03/24 06:10:13;;;;;;;21.08;5.82;;;;;;;;;;5066857;28;20053;-75
2023/03/24 06:12:49;;;;;;;9.88;4.78;;;;;;;;;;5066400;28;20549;-74
2023/03/24 06:15:21;;;;;;;10.93;4.72;;;;;;;;;;5066812;28;20049;-75
2023/03/24 06:17:53;;;;;;;7.95;4.53;;;;;;;;;;5066404;28;20059;-74
2023/03/24 06:20:34;;;;;;;9.55;5.13;;;;;;;;;;5065175;28;20119;-74
2023/03/24 06:23:07;;;;;;;11.48;4.78;;;;;;;;;;5066369;28;20052;-75
2023/03/24 06:25:57;;;;;;;10.98;4.45;;;;;;;;;;5067843;28;20057;-75
2023/03/24 06:28:33;;;;;;;19.60;5.38;;;;;;;;;;5066797;28;20063;-75
2023/03/24 06:31:20;;;;;;;15.35;5.65;;;;;;;;;;5066356;28;20048;-75
2023/03/24 06:33:53;;;;;;;9.98;5.07;;;;;;;;;;5066910;28;21139;-74
2023/03/24 06:36:24;;;;;;;13.77;4.90;;;;;;;;;;5066560;28;20057;-74
2023/03/24 06:38:55;;;;;;;10.27;5.50;;;;;;;;;;5066604;28;20060;-75
2023/03/24 06:41:26;;;;;;;12.00;5.50;;;;;;;;;;5066017;28;20059;-75
2023/03/24 06:44:01;;;;;;;12.65;4.93;;;;;;;;;;5065983;28;20887;-75
2023/03/24 06:46:31;;;;;;;11.30;5.03;;;;;;;;;;5065899;28;20049;-75
2023/03/24 06:49:02;;;;;;;11.30;5.47;;;;;;;;;;5066589;28;20060;-75
2023/03/24 06:51:33;;;;;;;10.05;4.63;;;;;;;;;;5065770;28;20541;-75
2023/03/24 06:54:04;;;;;;;11.63;5.30;;;;;;;;;;5068139;28;20048;-75
2023/03/24 06:56:34;;;;;;;11.38;4.93;;;;;;;;;;5066121;28;20423;-75
2023/03/24 06:59:05;;;;;;;12.07;5.00;;;;;;;;;;5066388;28;20056;-75
2023/03/24 07:01:37;;;;;;;13.27;4.13;;;;;;;;;;5067637;28;20052;-75
2023/03/24 07:04:24;;;;;;;9.15;4.20;;;;;;;;;;5066232;28;20052;-74
2023/03/24 07:06:54;;;;;;;12.02;4.65;;;;;;;;;;5067980;28;20068;-75
2023/03/24 07:09:49;;;;;;;13.98;5.07;;;;;;;;;;5066068;28;20048;-75
2023/03/24 07:12:20;;;;;;;10.43;4.97;;;;;;;;;;5065725;28;20507;-75
2023/03/24 07:14:51;;;;;;;14.00;4.88;;;;;;;;;;5065472;28;20071;-75
2023/03/24 07:17:21;;;;;;;10.65;4.22;;;;;;;;;;5050042;28;20052;-75
2023/03/24 07:20:07;;;;;;;11.43;4.30;;;;;;;;;;5065679;28;20048;-75
2023/03/24 07:22:58;;;;;;;12.20;3.80;;;;;;;;;;5059197;28;20063;-75
2023/03/24 07:25:46;;;;;;;10.10;4.15;;;;;;;;;;5065565;28;20063;-74
2023/03/24 07:28:38;;;;;;;12.00;4.75;;;;;;;;;;5035498;28;20060;-75
2023/03/24 07:31:11;;;;;;;9.50;4.03;;;;;;;;;;5065466;28;20048;-75
2023/03/24 07:33:43;;;;;;;14.88;4.60;;;;;;;;;;5064603;28;20075;-75
2023/03/24 07:36:15;;;;;;;10.13;4.43;;;;;;;;;;5066754;28;20094;-75
2023/03/24 07:38:46;;;;;;;10.15;4.68;;;;;;;;;;5064561;28;20423;-75
2023/03/24 07:41:25;;;;;;;19.95;4.95;;;;;;;;;;5065157;28;20514;-75
2023/03/24 07:43:59;;;;;;;10.98;4.03;;;;;;;;;;5065103;28;20056;-75
2023/03/24 07:46:40;;;;;;;9.13;4.57;;;;;;;;;;5065532;28;20059;-75
2023/03/24 07:49:12;;;;;;;10.70;4.93;;;;;;;;;;5067170;28;20048;-76
2023/03/24 07:52:05;;;;;;;12.45;4.88;;;;;;;;;;5065002;28;20060;-73
2023/03/24 07:54:50;;;;;;;8.95;4.63;;;;;;;;;;5065035;28;20059;-73
2023/03/24 07:57:57;;;;;;;15.38;5.50;;;;;;;;;;5005291;28;20054;-75
2023/03/24 08:00:29;;;;;;;9.95;4.95;;;;;;;;;;5051222;28;20423;-75
2023/03/24 08:03:28;;;;;;;14.60;6.10;;;;;;;;;;5054804;28;20053;-76
2023/03/24 08:06:17;;;;;;;12.38;6.47;;;;;;;;;;5070180;28;20049;-75
2023/03/24 08:08:52;;;;;;;16.38;7.53;;;;;;;;;;5066813;28;20513;-75
2023/03/24 08:11:22;;;;;;;13.10;7.07;;;;;;;;;;5067009;28;20044;-75
2023/03/24 08:13:52;;;;;;;19.52;8.68;;;;;;;;;;5066679;28;20044;-75
2023/03/24 08:16:23;;;;;;;15.45;9.55;;;;;;;;;;5066503;28;20052;-75
2023/03/24 08:18:57;;;;;;;15.35;8.43;;;;;;;;;;5066780;28;20048;-75
2023/03/24 08:21:27;;;;;;;16.02;9.32;;;;;;;;;;5066369;28;20044;-75
2023/03/24 08:23:57;;;;;;;18.45;8.65;;;;;;;;;;5066251;28;20055;-75
2023/03/24 08:26:29;;;;;;;15.82;7.85;;;;;;;;;;5066517;28;20864;-78
2023/03/24 08:29:00;;;;;;;13.82;5.10;;;;;;;;;;5066891;28;20040;-75
2023/03/24 08:31:34;;;;;;;10.98;4.25;;;;;;;;;;5066392;28;20048;-75
2023/03/24 08:34:05;;;;;;;15.75;4.65;;;;;;;;;;5066342;28;20503;-75
2023/03/24 08:36:36;;;;;;;12.15;5.15;;;;;;;;;;5065971;28;20052;-75
2023/03/24 08:39:08;;;;;;;15.77;5.40;;;;;;;;;;5077388;28;20059;-76
2023/03/24 08:41:39;;;;;;;15.55;6.90;;;;;;;;;;5086281;28;20052;-77
2023/03/24 08:44:10;;;;;;;13.25;6.03;;;;;;;;;;5087404;28;20414;-76
2023/03/24 08:46:41;;;;;;;9.73;5.43;;;;;;;;;;5091099;28;20086;-76
2023/03/24 08:49:11;;;;;;;12.73;4.90;;;;;;;;;;5090308;28;20044;-76
2023/03/24 08:51:41;;;;;;;11.05;4.97;;;;;;;;;;5090354;28;20410;-76
2023/03/24 08:54:11;;;;;;;12.43;6.85;;;;;;;;;;5090627;28;20055;-76
2023/03/24 08:56:43;;;;;;;10.77;4.93;;;;;;;;;;5090357;28;20044;-76
2023/03/24 08:59:13;;;;;;;13.48;4.78;;;;;;;;;;5089918;28;20047;-75
2023/03/24 09:01:43;;;;;;;11.02;4.78;;;;;;;;;;5090374;28;20055;-78
2023/03/24 09:04:14;;;;;;;14.48;5.68;;;;;;;;;;5090411;28;20051;-78
2023/03/24 09:06:44;;;;;;;10.00;5.38;;;;;;;;;;5089750;28;20541;-76
2023/03/24 09:09:15;;;;;;;10.40;4.07;;;;;;;;;;5090603;28;20262;-76
2023/03/24 09:11:48;;;;;;;14.20;4.43;;;;;;;;;;5090901;28;20040;-75
2023/03/24 09:14:21;;;;;;;8.60;5.03;;;;;;;;;;5090437;28;20055;-76
2023/03/24 09:16:52;;;;;;;10.60;4.72;;;;;;;;;;5056106;28;20498;-75
2023/03/24 09:19:23;;;;;;;9.77;4.88;;;;;;;;;;5089133;28;20095;-76
2023/03/24 09:21:53;;;;;;;12.50;4.25;;;;;;;;;;5089711;28;20056;-76
2023/03/24 09:24:23;;;;;;;19.95;4.30;;;;;;;;;;5088881;28;20059;-76
2023/03/24 09:26:54;;;;;;;16.00;5.15;;;;;;;;;;5090003;28;20087;-77
2023/03/24 09:29:25;;;;;;;11.25;4.03;;;;;;;;;;5089574;28;20047;-75
2023/03/24 09:31:58;;;;;;;14.75;4.05;;;;;;;;;;5089821;28;20526;-77
2023/03/24 09:34:29;;;;;;;18.65;4.68;;;;;;;;;;5090222;28;20055;-75
2023/03/24 09:37:04;;;;;;;12.65;4.50;;;;;;;;;;5090013;28;20517;-75
2023/03/24 09:39:36;;;;;;;11.73;4.45;;;;;;;;;;5072452;28;20102;-76
2023/03/24 09:42:15;;;;;;;14.60;4.80;;;;;;;;;;5071418;28;20059;-75
2023/03/24 09:45:00;;;;;;;14.10;4.45;;;;;;;;;;5072070;28;20048;-75
2023/03/24 09:47:41;;;;;;;10.82;4.55;;;;;;;;;;5089518;28;20052;-75
2023/03/24 09:50:30;;;;;;;22.13;5.18;;;;;;;;;;5089425;28;20044;-76
2023/03/24 09:53:36;;;;;;;24.50;4.75;;;;;;;;;;5088912;28;20048;-77
2023/03/24 09:56:17;;;;;;;15.88;4.30;;;;;;;;;;5088788;28;20040;-75
2023/03/24 09:59:00;;;;;;;17.85;4.85;;;;;;;;;;5088918;28;20055;-77
2023/03/24 10:01:35;;;;;;;15.27;3.78;;;;;;;;;;5089661;28;20838;-74
2023/03/24 10:04:15;;;;;;;15.80;4.60;;;;;;;;;;5089472;28;20055;-75
2023/03/24 10:06:51;;;;;;;17.20;4.43;;;;;;;;;;5071759;28;20044;-75
2023/03/24 10:09:30;;;;;;;11.60;4.18;;;;;;;;;;5098384;28;20059;-79
2023/03/24 10:12:34;;;;;;;20.08;4.32;;;;;;;;;;5109613;28;20406;-75
2023/03/24 10:15:17;;;;;;;23.42;5.10;;;;;;;;;;5109693;28;20051;-76
2023/03/24 10:18:33;;;;;;;15.85;3.70;;;;;;;;;;5108802;28;20051;-77
2023/03/24 10:21:13;;;;;;;14.98;4.30;;;;;;;;;;5107554;28;20531;-75
2023/03/24 10:24:14;;;;;;;24.23;4.50;;;;;;;;;;5109251;28;20055;-76
2023/03/24 10:26:45;;;;;;;16.65;3.92;;;;;;;;;;5109153;28;20468;-77
2023/03/24 10:29:24;;;;;;;45.28;18.15;;;;;;;;;;5109108;28;20047;-76
2023/03/24 10:32:15;;;;;;;14.75;4.75;;;;;;;;;;5108601;28;20048;-76
2023/03/24 10:34:52;;;;;;;18.67;4.75;;;;;;;;;;5090299;28;20051;-76
2023/03/24 10:37:23;;;;;;;22.48;4.57;;;;;;;;;;5099897;28;20048;-76
2023/03/24 10:39:53;;;;;;;18.25;4.80;;;;;;;;;;5098672;28;20043;-76
2023/03/24 10:42:25;;;;;;;16.75;4.78;;;;;;;;;;5098739;28;20044;-76
2023/03/24 10:44:56;;;;;;;15.63;5.35;;;;;;;;;;5097030;28;20044;-76
2023/03/24 10:47:29;;;;;;;13.38;4.20;;;;;;;;;;5094228;28;20438;-77
2023/03/24 10:50:07;;;;;;;15.05;4.70;;;;;;;;;;5086969;28;20064;-76
2023/03/24 10:52:45;;;;;;;11.73;4.03;;;;;;;;;;5088443;28;20490;-77
2023/03/24 10:55:18;;;;;;;11.32;4.28;;;;;;;;;;5087277;28;20052;-76
2023/03/24 10:57:57;;;;;;;13.43;4.78;;;;;;;;;;5087889;28;20407;-78
2023/03/24 11:00:31;;;;;;;9.65;4.10;;;;;;;;;;5087916;28;20043;-77
2023/03/24 11:03:15;;;;;;;16.17;4.15;;;;;;;;;;5068982;28;20055;-76
2023/03/24 11:05:46;;;;;;;16.13;4.30;;;;;;;;;;5087582;28;20052;-76
2023/03/24 11:08:27;;;;;;;25.77;4.18;;;;;;;;;;5086243;28;20044;-76
2023/03/24 11:10:57;;;;;;;20.38;3.75;;;;;;;;;;5087675;28;20040;-76
2023/03/24 11:13:32;;;;;;;21.42;4.82;;;;;;;;;;5087710;28;20052;-76
2023/03/24 11:16:18;;;;;;;17.02;3.92;;;;;;;;;;5088135;28;20043;-77
2023/03/24 11:19:05;;;;;;;17.67;3.63;;;;;;;;;;5087289;28;20499;-75
2023/03/24 11:21:36;;;;;;;12.10;4.22;;;;;;;;;;5087327;28;20754;-82
2023/03/24 11:24:18;;;;;;;11.10;3.63;;;;;;;;;;5086601;28;20036;-74
2023/03/24 11:27:00;;;;;;;14.50;3.95;;;;;;;;;;5086494;28;20427;-75
2023/03/24 11:29:37;;;;;;;14.98;3.63;;;;;;;;;;5086842;28;20048;-76
2023/03/24 11:32:15;;;;;;;15.00;3.80;;;;;;;;;;5087434;28;20055;-75
2023/03/24 11:34:51;;;;;;;15.63;3.85;;;;;;;;;;5086569;28;20055;-75
2023/03/24 11:37:24;;;;;;;8.38;3.35;;;;;;;;;;5085586;28;20044;-75
2023/03/24 11:40:17;;;;;;;13.57;3.60;;;;;;;;;;5087180;28;20502;-76
2023/03/24 11:42:59;;;;;;;17.63;3.83;;;;;;;;;;5069507;28;20047;-76
2023/03/24 11:45:45;;;;;;;11.23;2.73;;;;;;;;;;5086695;28;20040;-76
2023/03/24 11:48:49;;;;;;;17.35;3.40;;;;;;;;;;5068015;28;20264;-75
2023/03/24 11:51:34;;;;;;;19.63;4.28;;;;;;;;;;5072730;28;20056;-75
2023/03/24 11:54:12;;;;;;;14.55;3.40;;;;;;;;;;5086971;28;20048;-75
2023/03/24 11:56:46;;;;;;;18.08;4.45;;;;;;;;;;5086655;28;20048;-80
2023/03/24 11:59:57;;;;;;;11.48;2.80;;;;;;;;;;5069284;28;20048;-76
2023/03/24 12:03:29;;;;;;;11.18;2.55;;;;;;;;;;5087216;28;20051;-76
2023/03/24 12:06:05;;;;;;;12.20;2.70;;;;;;;;;;5045220;28;20063;-76
2023/03/24 12:09:23;;;;;;;6.85;2.25;;;;;;;;;;5069252;28;20047;-76
2023/03/24 12:12:08;;;;;;;;;;;;;;;;;;5067933;28;20059;-76
2023/03/24 12:15:03;;;;;;;18.70;2.83;;;;;;;;;;5086804;28;20636;-76
2023/03/24 12:17:46;;;;;;;15.02;3.25;;;;;;;;;;5086314;28;20442;-76
2023/03/24 12:20:44;;;;;;;14.23;2.03;;;;;;;;;;5086413;28;20048;-76
2023/03/24 12:23:33;;;;;;;15.95;2.72;;;;;;;;;;5086610;28;20048;-75
2023/03/24 12:26:13;;;;;;;12.07;2.42;;;;;;;;;;5087146;28;20040;-76
2023/03/24 12:28:54;;;;;;;10.70;2.05;;;;;;;;;;5086843;28;20044;-76
2023/03/24 12:31:46;;;;;;;12.50;2.15;;;;;;;;;;5086337;28;20048;-76
2023/03/24 12:34:55;;;;;;;10.70;2.50;;;;;;;;;;5086706;28;20044;-76
2023/03/24 12:37:32;;;;;;;9.25;2.22;;;;;;;;;;5086197;28;20044;-79
2023/03/24 12:40:26;;;;;;;11.75;2.35;;;;;;;;;;5086763;28;20407;-76
2023/03/24 12:43:34;;;;;;;10.05;2.92;;;;;;;;;;5086144;28;20040;-76
2023/03/24 12:46:28;;;;;;;17.17;3.58;;;;;;;;;;5086382;28;20411;-76
2023/03/24 12:49:37;;;;;;;8.63;2.03;;;;;;;;;;5086047;28;20047;-76
2023/03/24 12:52:15;;;;;;;10.40;2.42;;;;;;;;;;5086448;28;20054;-76
2023/03/24 12:54:53;;;;;;;11.35;2.40;;;;;;;;;;5086741;28;20051;-76
2023/03/24 12:57:26;;;;;;;10.05;2.40;;;;;;;;;;5086308;28;20048;-76
2023/03/24 13:00:16;;;;;;;11.25;3.00;;;;;;;;;;5086330;28;20052;-76
2023/03/24 13:02:56;;;;;;;12.63;2.58;;;;;;;;;;5086698;28;20048;-76
2023/03/24 13:05:31;;;;;;;12.73;2.83;;;;;;;;;;5085769;28;20052;-76
2023/03/24 13:08:15;;;;;;;10.55;2.50;;;;;;;;;;5086195;28;20056;-75
2023/03/24 13:10:47;;;;;;;7.57;2.60;;;;;;;;;;5086456;28;20043;-76
2023/03/24 13:13:21;;;;;;;13.80;2.40;;;;;;;;;;5084717;28;20067;-77
2023/03/24 13:15:59;;;;;;;7.82;2.53;;;;;;;;;;5086470;28;20059;-76
2023/03/24 13:18:42;;;;;;;12.75;2.60;;;;;;;;;;5086464;28;20044;-76
2023/03/24 13:21:19;;;;;;;16.83;3.00;;;;;;;;;;5068648;28;20059;-75
2023/03/24 13:23:53;;;;;;;7.78;2.05;;;;;;;;;;5085634;28;20048;-76
2023/03/24 13:26:54;;;;;;;8.98;2.58;;;;;;;;;;5085671;28;20047;-77
2023/03/24 13:29:49;;;;;;;8.13;2.33;;;;;;;;;;5085668;28;20047;-76
2023/03/24 13:32:21;;;;;;;6.63;2.28;;;;;;;;;;5089027;28;20414;-77
2023/03/24 13:35:01;;;;;;;6.95;2.35;;;;;;;;;;5089301;28;20044;-76
2023/03/24 13:37:36;;;;;;;12.95;2.58;;;;;;;;;;5089344;28;20051;-79
2023/03/24 13:40:18;;;;;;;8.35;2.30;;;;;;;;;;5089299;28;20051;-76
2023/03/24 13:42:58;;;;;;;5.90;2.10;;;;;;;;;;5089537;28;20055;-76
2023/03/24 13:45:32;;;;;;;13.35;2.95;;;;;;;;;;5089667;28;20040;-77
2023/03/24 13:48:10;;;;;;;11.93;2.10;;;;;;;;;;5089293;28;20063;-76
2023/03/24 13:50:54;;;;;;;5.53;1.60;;;;;;;;;;5071350;28;20048;-76
2023/03/24 13:53:39;;;;;;;6.68;1.80;;;;;;;;;;5089430;28;20052;-76
2023/03/24 13:56:11;;;;;;;7.95;2.13;;;;;;;;;;5089370;28;20403;-79
2023/03/24 13:59:05;;;;;;;11.90;2.67;;;;;;;;;;5070092;28;20047;-75
2023/03/24 14:01:48;;;;;;;12.98;2.33;;;;;;;;;;5088884;28;20407;-78
2023/03/24 14:04:22;;;;;;;7.18;1.75;;;;;;;;;;5070313;28;20426;-79
2023/03/24 14:06:58;;;;;;;6.20;1.90;;;;;;;;;;5089302;28;20055;-76
2023/03/24 14:09:31;;;;;;;14.15;2.17;;;;;;;;;;5088574;28;20043;-76
2023/03/24 14:12:03;;;;;;;4.45;1.25;;;;;;;;;;5088535;28;20048;-76
2023/03/24 14:15:05;;;;;;;5.07;1.58;;;;;;;;;;5088991;28;20478;-78
2023/03/24 14:17:39;;;;;;;;;;;;;;;;;;5089497;28;20070;-78
2023/03/24 14:20:12;;;;;;;8.32;2.28;;;;;;;;;;5088720;28;19923;-76
2023/03/24 14:22:50;;;;;;;7.15;2.20;;;;;;;;;;5088390;28;20052;-76
2023/03/24 14:25:30;;;;;;;7.50;1.50;;;;;;;;;;5088447;28;20527;-76
2023/03/24 14:28:20;;;;;;;9.30;1.30;;;;;;;;;;5070874;28;20055;-76
2023/03/24 14:31:02;;;;;;;6.30;1.73;;;;;;;;;;5089034;28;20047;-76
2023/03/24 14:33:32;;;;;;;9.55;1.65;;;;;;;;;;5070825;28;20411;-77
2023/03/24 14:36:10;;;;;;;10.55;1.23;;;;;;;;;;5088156;28;20044;-75
2023/03/24 14:38:43;;;;;;;8.13;2.05;;;;;;;;;;5087886;28;20059;-76
2023/03/24 14:41:16;;;;;;;5.28;1.45;;;;;;;;;;5087466;28;20052;-76
2023/03/24 14:43:46;;;;;;;9.95;1.60;;;;;;;;;;5087349;28;20040;-77
2023/03/24 14:46:20;;;;;;;4.38;1.27;;;;;;;;;;5088227;28;20044;-77
2023/03/24 14:49:03;;;;;;;12.85;1.83;;;;;;;;;;5087913;28;20070;-77
2023/03/24 14:51:56;;;;;;;9.27;1.98;;;;;;;;;;5088230;28;20032;-76
2023/03/24 14:54:44;;;;;;;5.07;1.40;;;;;;;;;;5078901;28;20060;-76
2023/03/24 14:57:21;;;;;;;6.00;1.75;;;;;;;;;;5088557;28;20043;-76
2023/03/24 15:00:18;;;;;;;11.27;1.67;;;;;;;;;;5087877;28;20055;-76
2023/03/24 15:03:30;;;;;;;3.28;1.33;;;;;;;;;;5085744;28;20669;-76
2023/03/24 15:06:21;;;;;;;3.72;1.13;;;;;;;;;;5087264;28;20054;-78
2023/03/24 15:09:03;;;;;;;10.27;1.80;;;;;;;;;;5087679;28;20048;-76
2023/03/24 15:11:38;;;;;;;7.90;1.35;;;;;;;;;;5086995;28;20564;-76
2023/03/24 15:14:27;;;;;;;4.65;1.23;;;;;;;;;;5087665;28;20044;-76
2023/03/24 15:17:23;;;;;;;8.50;1.50;;;;;;;;;;5087636;28;20048;-76
2023/03/24 15:19:55;;;;;;;8.25;2.40;;;;;;;;;;5068943;28;20048;-77
2023/03/24 15:22:26;;;;;;;7.22;1.50;;;;;;;;;;5087592;28;20044;-76
2023/03/24 15:24:57;;;;;;;5.13;1.60;;;;;;;;;;5068111;28;20736;-76
2023/03/24 15:27:30;;;;;;;9.48;2.40;;;;;;;;;;5086443;28;20052;-80
2023/03/24 15:30:02;;;;;;;8.35;1.50;;;;;;;;;;5086374;28;20058;-76
2023/03/24 15:32:37;;;;;;;8.68;1.23;;;;;;;;;;5069046;28;20055;-76
2023/03/24 15:35:14;;;;;;;10.07;1.75;;;;;;;;;;5086809;28;20044;-75
2023/03/24 15:37:51;;;;;;;4.38;1.20;;;;;;;;;;5088331;28;20503;-75
2023/03/24 15:40:29;;;;;;;16.27;2.33;;;;;;;;;;5086460;28;20063;-75
2023/03/24 15:43:03;;;;;;;6.55;1.30;;;;;;;;;;5086909;28;20040;-75
2023/03/24 15:45:54;;;;;;;6.35;1.35;;;;;;;;;;5087319;28;20056;-76
2023/03/24 15:48:40;;;;;;;3.85;1.40;;;;;;;;;;5086686;28;20044;-75